createdAt,value
2019-02-09T00:01:48.587Z,8.66
2019-02-09T00:04:20.461Z,8.64
2019-02-09T00:06:50.580Z,8.51
2019-02-09T00:09:23.573Z,8.44
2019-02-09T00:11:56.403Z,8.48
2019-02-09T00:14:26.992Z,8.45
2019-02-09T00:16:57.001Z,8.43
2019-02-09T00:19:28.183Z,8.29
2019-02-09T00:21:58.543Z,8.37
2019-02-09T00:24:28.668Z,8.28
2019-02-09T00:26:58.729Z,8.18
2019-02-09T00:29:28.984Z,8.20
2019-02-09T00:31:59.008Z,8.14
2019-02-09T00:34:29.563Z,8.09
2019-02-09T00:37:00.176Z,8.11
2019-02-09T00:39:30.178Z,8.09
2019-02-09T00:42:00.351Z,7.98
2019-02-09T00:44:31.668Z,8.02
2019-02-09T00:47:03.717Z,8.00
2019-02-09T00:49:34.425Z,7.91
2019-02-09T00:52:05.528Z,7.85
2019-02-09T00:54:36.765Z,7.86
2019-02-09T00:57:07.039Z,7.88
2019-02-09T00:59:37.036Z,7.79
2019-02-09T01:02:08.162Z,7.77
2019-02-09T01:04:40.700Z,7.90
2019-02-09T01:07:13.271Z,7.90
2019-02-09T01:09:43.384Z,7.83
2019-02-09T01:12:14.961Z,7.85
2019-02-09T01:14:45.138Z,7.88
2019-02-09T01:17:18.381Z,7.84
2019-02-09T01:19:48.535Z,7.83
2019-02-09T01:22:18.995Z,7.80
2019-02-09T01:24:48.914Z,7.87
2019-02-09T01:27:19.011Z,7.91
2019-02-09T01:29:49.482Z,7.97
2019-02-09T01:32:20.930Z,7.97
2019-02-09T01:34:51.099Z,7.94
2019-02-09T01:37:21.952Z,8.11
2019-02-09T01:39:52.371Z,8.14
2019-02-09T01:42:23.894Z,8.18
2019-02-09T01:44:54.778Z,8.24
2019-02-09T01:47:24.669Z,8.28
2019-02-09T01:49:55.033Z,8.38
2019-02-09T01:52:25.179Z,8.38
2019-02-09T01:54:55.462Z,8.43
2019-02-09T01:57:33.475Z,8.44
2019-02-09T02:00:10.370Z,8.46
2019-02-09T02:02:36.637Z,8.49
2019-02-09T02:05:07.599Z,8.52
2019-02-09T02:07:38.708Z,8.47
2019-02-09T02:10:14.057Z,8.46
2019-02-09T02:12:44.100Z,8.43
2019-02-09T02:15:17.095Z,8.49
2019-02-09T02:17:47.356Z,8.43
2019-02-09T02:20:23.558Z,8.45
2019-02-09T02:22:54.280Z,8.44
2019-02-09T02:25:26.402Z,8.32
2019-02-09T02:27:58.242Z,8.20
2019-02-09T02:30:34.592Z,8.18
2019-02-09T02:33:04.968Z,8.27
2019-02-09T02:35:36.330Z,8.17
2019-02-09T02:38:07.062Z,8.36
2019-02-09T02:40:38.298Z,8.36
2019-02-09T02:43:08.410Z,8.35
2019-02-09T02:45:38.782Z,8.38
2019-02-09T02:48:08.850Z,8.37
2019-02-09T02:50:40.625Z,8.33
2019-02-09T02:53:11.290Z,8.30
2019-02-09T02:55:41.786Z,8.41
2019-02-09T02:58:12.548Z,8.55
2019-02-09T03:00:43.033Z,8.55
2019-02-09T03:03:13.192Z,8.55
2019-02-09T03:05:43.457Z,8.72
2019-02-09T03:08:13.424Z,8.76
2019-02-09T03:10:43.366Z,8.74
2019-02-09T03:13:13.560Z,8.76
2019-02-09T03:15:43.562Z,8.83
2019-02-09T03:18:13.680Z,8.90
2019-02-09T03:20:43.838Z,8.99
2019-02-09T03:23:13.920Z,9.11
2019-02-09T03:25:43.786Z,9.01
2019-02-09T03:28:14.102Z,8.94
2019-02-09T03:30:47.463Z,9.10
2019-02-09T03:33:16.988Z,9.16
2019-02-09T03:35:47.264Z,9.13
2019-02-09T03:38:17.152Z,9.13
2019-02-09T03:40:47.172Z,9.01
2019-02-09T03:43:17.328Z,9.07
2019-02-09T03:45:47.325Z,9.12
2019-02-09T03:48:17.449Z,8.96
2019-02-09T03:50:47.697Z,8.77
2019-02-09T03:53:17.833Z,8.79
2019-02-09T03:55:47.977Z,8.77
2019-02-09T03:58:21.146Z,8.58
2019-02-09T04:00:55.376Z,8.54
2019-02-09T04:03:27.419Z,8.25
2019-02-09T04:05:59.436Z,8.19
2019-02-09T04:08:29.555Z,8.11
2019-02-09T04:10:59.794Z,8.04
2019-02-09T04:13:29.761Z,7.89
2019-02-09T04:15:59.877Z,7.87
2019-02-09T04:18:30.124Z,7.78
2019-02-09T04:21:03.053Z,7.65
2019-02-09T04:23:37.043Z,6.94
2019-02-09T04:26:06.910Z,7.55
2019-02-09T04:28:36.830Z,7.55
2019-02-09T04:31:07.196Z,7.65
2019-02-09T04:33:37.126Z,7.65
2019-02-09T04:36:07.002Z,7.65
2019-02-09T04:38:38.656Z,7.56
2019-02-09T04:41:11.817Z,7.56
2019-02-09T04:43:41.682Z,7.55
2019-02-09T04:46:11.665Z,7.63
2019-02-09T04:48:41.665Z,7.61
2019-02-09T04:51:14.960Z,7.69
2019-02-09T04:53:45.034Z,7.67
2019-02-09T04:56:15.316Z,7.67
2019-02-09T04:58:45.666Z,7.68
2019-02-09T05:01:17.065Z,7.68
2019-02-09T05:03:46.908Z,7.66
2019-02-09T05:06:18.067Z,7.58
2019-02-09T05:08:47.966Z,7.66
2019-02-09T05:11:25.231Z,7.66
2019-02-09T05:13:56.209Z,7.72
2019-02-09T05:16:30.564Z,7.63
2019-02-09T05:19:00.668Z,7.77
2019-02-09T05:21:32.108Z,7.77
2019-02-09T05:24:02.047Z,7.65
2019-02-09T05:26:32.119Z,7.63
2019-02-09T05:29:01.991Z,7.59
2019-02-09T05:31:32.416Z,7.59
2019-02-09T05:34:03.598Z,7.76
2019-02-09T05:36:33.884Z,7.83
2019-02-09T05:39:08.288Z,7.89
2019-02-09T05:41:39.654Z,7.97
2019-02-09T05:44:09.655Z,8.06
2019-02-09T05:46:40.395Z,8.01
2019-02-09T05:49:11.891Z,8.01
2019-02-09T05:51:41.899Z,7.95
2019-02-09T05:54:13.191Z,7.90
2019-02-09T05:56:43.067Z,7.91
2019-02-09T05:59:14.259Z,7.91
2019-02-09T06:01:44.421Z,7.58
2019-02-09T06:04:15.585Z,7.72
2019-02-09T06:06:46.347Z,7.31
2019-02-09T06:09:16.484Z,7.49
2019-02-09T06:11:46.811Z,7.44
2019-02-09T06:14:17.198Z,7.31
2019-02-09T06:16:47.502Z,7.31
2019-02-09T06:19:20.320Z,7.18
2019-02-09T06:21:50.705Z,7.08
2019-02-09T06:24:21.094Z,7.08
2019-02-09T06:26:50.893Z,7.12
2019-02-09T06:29:21.002Z,7.09
2019-02-09T06:31:52.025Z,7.09
2019-02-09T06:34:23.445Z,7.01
2019-02-09T06:36:54.125Z,7.10
2019-02-09T06:39:24.046Z,7.27
2019-02-09T06:41:53.997Z,7.27
2019-02-09T06:44:24.827Z,7.40
2019-02-09T06:46:54.717Z,7.40
2019-02-09T06:49:24.583Z,7.51
2019-02-09T06:51:54.756Z,7.69
2019-02-09T06:54:24.978Z,7.69
2019-02-09T06:56:58.004Z,7.81
2019-02-09T06:59:28.010Z,7.85
2019-02-09T07:01:58.027Z,7.85
2019-02-09T07:04:27.911Z,7.97
2019-02-09T07:07:02.228Z,8.03
2019-02-09T07:09:32.190Z,7.84
2019-02-09T07:12:04.785Z,7.93
2019-02-09T07:14:35.116Z,7.97
2019-02-09T07:17:07.766Z,7.97
2019-02-09T07:19:38.421Z,7.98
2019-02-09T07:22:09.995Z,8.08
2019-02-09T07:24:43.000Z,8.08
2019-02-09T07:27:13.264Z,8.13
2019-02-09T07:29:46.897Z,7.95
2019-02-09T07:32:16.735Z,8.02
2019-02-09T07:34:47.425Z,8.08
2019-02-09T07:37:18.798Z,8.07
2019-02-09T07:39:48.801Z,7.98
2019-02-09T07:42:22.193Z,8.13
2019-02-09T07:44:57.215Z,8.03
2019-02-09T07:47:27.230Z,8.03
2019-02-09T07:50:08.615Z,8.14
2019-02-09T07:52:39.886Z,8.22
2019-02-09T07:55:12.684Z,8.22
2019-02-09T07:57:43.066Z,8.37
2019-02-09T08:00:20.068Z,8.39
2019-02-09T08:02:50.389Z,8.47
2019-02-09T08:05:26.116Z,8.51
2019-02-09T08:07:56.162Z,8.70
2019-02-09T08:10:28.028Z,8.65
2019-02-09T08:12:58.397Z,8.76
2019-02-09T08:15:31.142Z,8.84
2019-02-09T08:18:01.273Z,8.84
2019-02-09T08:20:34.610Z,8.83
2019-02-09T08:23:05.060Z,8.75
2019-02-09T08:25:36.409Z,8.79
2019-02-09T08:28:08.171Z,8.72
2019-02-09T08:30:43.897Z,8.68
2019-02-09T08:33:19.146Z,8.77
2019-02-09T08:35:49.462Z,8.72
2019-02-09T08:38:22.441Z,8.75
2019-02-09T08:40:52.392Z,8.77
2019-02-09T08:43:25.749Z,8.85
2019-02-09T08:45:56.880Z,9.03
2019-02-09T08:48:27.045Z,9.18
2019-02-09T08:51:04.707Z,9.27
2019-02-09T08:53:34.764Z,9.36
2019-02-09T08:56:07.916Z,9.40
2019-02-09T08:58:38.055Z,9.45
2019-02-09T09:01:08.142Z,9.59
2019-02-09T09:03:38.966Z,9.67
2019-02-09T09:06:09.158Z,9.65
2019-02-09T09:08:39.205Z,9.64
2019-02-09T09:11:09.968Z,9.62
2019-02-09T09:13:40.460Z,9.68
2019-02-09T09:16:14.691Z,9.59
2019-02-09T09:18:47.337Z,9.65
2019-02-09T09:21:18.452Z,9.65
2019-02-09T09:23:49.759Z,9.76
2019-02-09T09:26:20.691Z,9.60
2019-02-09T09:28:56.887Z,9.60
2019-02-09T09:31:30.902Z,9.73
2019-02-09T09:34:05.475Z,9.73
2019-02-09T09:36:36.209Z,9.63
2019-02-09T09:39:09.731Z,9.57
2019-02-09T09:41:40.038Z,9.59
2019-02-09T09:44:13.694Z,9.80
2019-02-09T09:46:43.802Z,9.78
2019-02-09T09:49:14.942Z,9.87
2019-02-09T09:51:45.333Z,9.89
2019-02-09T09:54:16.910Z,9.79
2019-02-09T09:56:47.196Z,9.74
2019-02-09T09:59:17.574Z,9.88
2019-02-09T10:01:50.449Z,9.92
2019-02-09T10:04:21.091Z,10.14
2019-02-09T10:06:51.212Z,10.24
2019-02-09T10:09:23.616Z,10.32
2019-02-09T10:11:55.816Z,10.26
2019-02-09T10:14:29.430Z,10.29
2019-02-09T10:17:00.674Z,10.25
2019-02-09T10:19:31.317Z,10.27
2019-02-09T10:22:01.978Z,10.39
2019-02-09T10:24:37.281Z,10.61
2019-02-09T10:27:08.805Z,10.52
2019-02-09T10:29:42.401Z,10.50
2019-02-09T10:32:13.355Z,10.55
2019-02-09T10:34:46.234Z,10.59
2019-02-09T10:37:17.923Z,10.60
2019-02-09T10:39:48.399Z,10.52
2019-02-09T10:42:20.106Z,10.56
2019-02-09T10:44:50.648Z,10.45
2019-02-09T10:47:21.437Z,10.48
2019-02-09T10:49:51.871Z,10.46
2019-02-09T10:52:22.188Z,10.51
2019-02-09T10:54:53.280Z,10.56
2019-02-09T10:57:26.018Z,10.84
2019-02-09T10:59:56.910Z,10.99
2019-02-09T11:02:28.111Z,10.99
2019-02-09T11:04:59.948Z,10.81
2019-02-09T11:07:32.385Z,10.90
2019-02-09T11:10:04.022Z,10.94
2019-02-09T11:12:34.391Z,10.88
2019-02-09T11:15:10.700Z,10.86
2019-02-09T11:17:40.984Z,11.01
2019-02-09T11:20:14.913Z,11.12
2019-02-09T11:22:50.877Z,11.04
2019-02-09T11:25:21.630Z,11.13
2019-02-09T11:27:53.067Z,11.32
2019-02-09T11:30:24.922Z,11.31
2019-02-09T11:33:02.065Z,11.44
2019-02-09T11:35:28.411Z,11.40
2019-02-09T11:37:58.535Z,11.46
2019-02-09T11:40:28.762Z,11.50
2019-02-09T11:42:59.119Z,11.54
2019-02-09T11:45:31.599Z,11.65
2019-02-09T11:48:02.250Z,11.57
2019-02-09T11:50:32.676Z,11.75
2019-02-09T11:53:03.603Z,11.84
2019-02-09T11:55:35.217Z,11.87
2019-02-09T11:58:05.316Z,11.84
2019-02-09T12:00:39.642Z,11.65
2019-02-09T12:03:14.990Z,11.47
2019-02-09T12:05:43.102Z,11.49
2019-02-09T12:08:15.211Z,11.46
2019-02-09T12:10:48.715Z,11.48
2019-02-09T12:13:23.767Z,11.40
2019-02-09T12:15:56.798Z,11.39
2019-02-09T12:18:27.622Z,11.35
2019-02-09T12:20:57.667Z,11.37
2019-02-09T12:23:28.158Z,11.44
2019-02-09T12:25:59.804Z,11.52
2019-02-09T12:28:29.911Z,11.58
2019-02-09T12:31:00.187Z,11.61
2019-02-09T12:33:33.330Z,11.53
2019-02-09T12:36:08.043Z,11.78
2019-02-09T12:38:38.343Z,11.83
2019-02-09T12:41:09.547Z,11.97
2019-02-09T12:43:39.636Z,11.99
2019-02-09T12:46:14.569Z,11.98
2019-02-09T12:48:45.377Z,11.94
2019-02-09T12:51:15.300Z,11.72
2019-02-09T12:53:45.435Z,11.70
2019-02-09T12:56:16.904Z,11.80
2019-02-09T12:58:47.039Z,11.88
2019-02-09T13:01:18.953Z,11.72
2019-02-09T13:03:49.457Z,11.60
2019-02-09T13:06:20.101Z,11.70
2019-02-09T13:11:40.690Z,11.74
2019-02-09T13:14:21.676Z,11.82
2019-02-09T13:17:03.531Z,11.85
2019-02-09T13:19:34.311Z,11.77
2019-02-09T13:25:18.701Z,11.56
2019-02-09T13:28:29.002Z,11.64
2019-02-09T13:31:19.959Z,11.55
2019-02-09T13:36:54.213Z,11.45
2019-02-09T13:39:26.139Z,11.30
2019-02-09T13:42:00.279Z,11.42
2019-02-09T13:44:33.397Z,11.57
2019-02-09T13:47:03.528Z,11.61
2019-02-09T13:50:05.721Z,11.58
2019-02-09T13:52:47.213Z,11.68
2019-02-09T13:55:56.256Z,11.70
2019-02-09T13:58:45.213Z,11.77
2019-02-09T14:01:45.935Z,11.82
2019-02-09T14:04:26.791Z,12.07
2019-02-09T14:07:15.931Z,12.28
2019-02-09T14:10:15.714Z,12.52
2019-02-09T14:13:16.604Z,12.37
2019-02-09T14:15:58.599Z,12.20
2019-02-09T14:18:28.962Z,11.63
2019-02-09T14:21:18.107Z,12.16
2019-02-09T14:24:07.536Z,12.11
2019-02-09T14:30:24.548Z,11.76
2019-02-09T14:33:13.516Z,11.46
2019-02-09T14:36:22.680Z,11.41
2019-02-09T14:39:04.617Z,11.51
2019-02-09T14:44:45.494Z,11.46
2019-02-09T14:47:26.272Z,11.48
2019-02-09T14:50:11.261Z,11.44
2019-02-09T14:53:18.824Z,11.48
2019-02-09T14:58:50.414Z,11.52
2019-02-09T15:01:21.148Z,11.35
2019-02-09T15:03:51.512Z,11.29
2019-02-09T15:06:40.434Z,11.12
2019-02-09T15:09:49.882Z,11.03
2019-02-09T15:12:31.049Z,11.04
2019-02-09T15:15:12.521Z,11.15
2019-02-09T15:18:21.593Z,11.30
2019-02-09T15:24:05.712Z,11.45
2019-02-09T15:26:37.390Z,11.50
2019-02-09T15:29:08.920Z,11.44
2019-02-09T15:31:38.750Z,11.33
2019-02-09T15:37:53.076Z,11.15
2019-02-09T15:40:23.923Z,10.92
2019-02-09T15:42:54.172Z,10.75
2019-02-09T15:45:36.021Z,10.73
2019-02-09T15:48:17.902Z,10.72
2019-02-09T15:50:59.593Z,10.70
2019-02-09T15:53:30.172Z,10.74
2019-02-09T15:56:39.308Z,10.05
2019-02-09T16:02:22.288Z,10.39
2019-02-09T16:05:03.853Z,10.36
2019-02-09T16:07:45.412Z,10.45
2019-02-09T16:10:45.862Z,10.35
2019-02-09T16:13:27.017Z,10.26
2019-02-09T16:16:36.072Z,10.21
2019-02-09T16:19:44.447Z,10.04
2019-02-09T16:25:47.403Z,9.76
2019-02-09T16:31:30.527Z,9.78
2019-02-09T16:34:39.521Z,9.64
2019-02-09T16:37:28.741Z,9.59
2019-02-09T16:40:37.866Z,9.62
2019-02-09T16:43:27.153Z,9.51
2019-02-09T16:45:57.579Z,9.42
2019-02-09T16:48:27.663Z,9.39
2019-02-09T16:51:16.900Z,9.35
2019-02-09T16:54:25.890Z,9.35
2019-02-09T17:00:08.089Z,9.24
2019-02-09T17:02:49.561Z,9.29
2019-02-09T17:05:19.992Z,9.25
2019-02-09T17:07:50.329Z,9.19
2019-02-09T17:10:59.378Z,9.17
2019-02-09T17:13:42.260Z,9.20
2019-02-09T17:16:15.968Z,9.22
2019-02-09T17:19:05.748Z,9.20
2019-02-09T17:21:39.236Z,9.16
2019-02-09T17:24:10.592Z,9.19
2019-02-09T17:27:02.656Z,9.22
2019-02-09T17:29:34.256Z,9.11
2019-02-09T17:32:04.866Z,9.11
2019-02-09T17:34:40.819Z,9.08
2019-02-09T17:37:07.536Z,8.51
2019-02-09T17:39:37.449Z,9.13
2019-02-09T17:42:08.956Z,9.26
2019-02-09T17:44:39.320Z,9.16
2019-02-09T17:47:10.724Z,9.19
2019-02-09T17:49:41.247Z,9.14
2019-02-09T17:52:11.526Z,9.08
2019-02-09T17:54:41.836Z,9.08
2019-02-09T17:57:16.538Z,9.16
2019-02-09T17:59:47.221Z,9.12
2019-02-09T18:02:17.872Z,9.05
2019-02-09T18:04:51.534Z,9.14
2019-02-09T18:07:21.875Z,8.59
2019-02-09T18:09:51.720Z,9.10
2019-02-09T18:12:21.800Z,9.09
2019-02-09T18:14:52.410Z,9.14
2019-02-09T18:17:22.245Z,9.17
2019-02-09T18:19:53.722Z,9.18
2019-02-09T18:22:23.812Z,9.15
2019-02-09T18:24:54.344Z,9.12
2019-02-09T18:27:24.922Z,9.06
2019-02-09T18:30:26.294Z,9.08
2019-02-09T18:33:18.777Z,9.09
2019-02-09T18:36:00.312Z,8.51
2019-02-09T18:38:31.401Z,9.02
2019-02-09T18:41:42.432Z,9.00
2019-02-09T18:47:08.141Z,8.92
2019-02-09T18:49:38.409Z,8.94
2019-02-09T18:54:59.121Z,8.95
2019-02-09T18:57:29.825Z,8.90
2019-02-09T19:00:22.145Z,8.89
2019-02-09T19:06:20.719Z,8.85
2019-02-09T19:11:54.670Z,8.31
2019-02-09T19:20:33.093Z,8.84
2019-02-09T19:23:06.694Z,8.91
2019-02-09T19:25:38.338Z,8.89
2019-02-09T19:28:08.960Z,8.87
2019-02-09T19:30:40.530Z,8.76
2019-02-09T19:33:11.388Z,8.78
2019-02-09T19:35:43.426Z,8.75
2019-02-09T19:38:13.706Z,8.74
2019-02-09T19:40:47.888Z,8.79
2019-02-09T19:43:40.623Z,8.77
2019-02-09T19:46:43.575Z,8.65
2019-02-09T19:52:18.534Z,8.77
2019-02-09T19:55:22.860Z,8.75
2019-02-09T19:58:04.876Z,8.82
2019-02-09T20:00:38.688Z,8.81
2019-02-09T20:03:09.433Z,8.67
2019-02-09T20:05:59.024Z,8.74
2019-02-09T20:08:30.145Z,8.72
2019-02-09T20:11:00.985Z,8.73
2019-02-09T20:13:33.443Z,8.70
2019-02-09T20:16:12.418Z,8.71
2019-02-09T20:18:48.240Z,8.75
2019-02-09T20:21:20.460Z,8.74
2019-02-09T20:23:51.755Z,8.66
2019-02-09T20:26:29.838Z,8.65
2019-02-09T20:29:09.505Z,8.73
2019-02-09T20:31:41.666Z,8.65
2019-02-09T20:34:18.742Z,8.68
2019-02-09T20:36:52.433Z,8.69
2019-02-09T20:39:24.223Z,8.68
2019-02-09T20:41:54.351Z,8.67
2019-02-09T20:44:25.065Z,8.68
2019-02-09T20:46:57.018Z,8.75
2019-02-09T20:49:29.274Z,8.86
2019-02-09T20:52:00.578Z,8.98
2019-02-09T20:54:30.561Z,9.13
2019-02-09T20:57:09.463Z,9.19
2019-02-09T20:59:40.600Z,9.35
2019-02-09T21:02:12.152Z,9.37
2019-02-09T21:04:42.573Z,9.39
2019-02-09T21:07:13.599Z,9.51
2019-02-09T21:09:44.005Z,9.56
2019-02-09T21:12:16.970Z,9.60
2019-02-09T21:15:25.884Z,9.62
2019-02-09T21:18:08.519Z,9.75
2019-02-09T21:21:17.543Z,9.62
2019-02-09T21:23:59.031Z,9.66
2019-02-09T21:26:59.467Z,9.54
2019-02-09T21:29:40.321Z,9.54
2019-02-09T21:32:21.310Z,9.57
2019-02-09T21:35:02.351Z,9.60
2019-02-09T21:37:52.953Z,9.56
2019-02-09T21:40:24.672Z,9.66
2019-02-09T21:42:55.284Z,9.20
2019-02-09T21:45:25.671Z,9.76
2019-02-09T21:47:56.074Z,9.83
2019-02-09T21:50:38.088Z,9.79
2019-02-09T21:53:08.898Z,9.65
2019-02-09T21:55:40.547Z,9.43
2019-02-09T21:58:10.841Z,9.36
2019-02-09T22:00:43.343Z,9.37
2019-02-09T22:03:14.579Z,9.24
2019-02-09T22:06:24.681Z,9.27
2019-02-09T22:08:56.768Z,9.22
2019-02-09T22:11:29.833Z,8.93
2019-02-09T22:14:00.827Z,9.06
2019-02-09T22:20:05.468Z,8.94
2019-02-09T22:22:35.896Z,8.95
2019-02-09T22:25:26.847Z,8.94
2019-02-09T22:28:08.376Z,8.94
2019-02-09T22:31:21.838Z,8.89
2019-02-09T22:37:19.530Z,8.77
2019-02-09T22:42:48.237Z,8.76
2019-02-09T22:45:19.965Z,8.80
2019-02-09T22:54:00.146Z,8.94
2019-02-09T22:56:32.738Z,8.46
2019-02-09T22:59:03.506Z,9.13
2019-02-09T23:01:53.370Z,9.18
2019-02-09T23:04:50.354Z,9.29
2019-02-09T23:07:25.241Z,9.35
2019-02-09T23:10:34.341Z,9.47
2019-02-09T23:13:24.595Z,9.42
2019-02-09T23:15:54.638Z,9.45
2019-02-09T23:18:24.655Z,9.51
2019-02-09T23:20:56.012Z,9.53
2019-02-09T23:23:25.946Z,9.52
2019-02-09T23:25:56.678Z,9.50
2019-02-09T23:28:26.827Z,9.42
2019-02-09T23:30:56.824Z,9.28
2019-02-09T23:33:27.471Z,9.27
2019-02-09T23:35:57.535Z,9.16
2019-02-09T23:38:27.900Z,9.14
2019-02-09T23:40:57.750Z,9.17
2019-02-09T23:43:27.651Z,9.16
2019-02-09T23:45:58.987Z,9.12
2019-02-09T23:48:29.447Z,9.09
2019-02-09T23:50:59.423Z,9.03
2019-02-09T23:53:29.621Z,8.99
2019-02-09T23:56:18.867Z,8.83
2019-02-09T23:58:49.352Z,8.16
